Latest Weather Observations for Charlton

IDV60801

Issued at 3:32 pm EDT Thursday 30 March 2017 (issued every 30 minutes, with the page automatically refreshed every 10 minutes)

About weather observations | Map of weather stations | Latest weather observations for VIC | Other Formats
Station Details ID: 080128 Name: CHARLTON Lat: -36.28 Lon: 143.33 Height: 131.7 m
Data from the previous 72 hours. | See also: Recent months at Charlton
Date/Time
EDT
Temp
°C
App
Temp
°C
Dew
Point
°C
Rel
Hum
%
Delta-T
°C
Wind Press
QNH
hPa
Press
MSL
hPa
Rain since
9am
mm
Dir  Spd
km/h
Gust
km/h
Spd
kts
Gust
kts
30/03:30pm 18.4 13.8 3.5 37 7.0 SSW 17 30 9 16 1018.1 1017.7 0.0
30/03:00pm 18.5 13.5 3.6 37 7.0 S 19 32 10 17 1018.1 1017.7 0.0
30/02:30pm 19.5 15.1 4.8 38 7.2 SSW 17 33 9 18 1018.4 1017.9 0.0
30/02:00pm 17.4 12.4 4.4 42 6.2 SSW 20 35 11 19 1018.7 1018.3 0.0
30/01:30pm 17.6 12.1 3.9 40 6.5 SW 22 39 12 21 1018.7 1018.3 0.0
30/01:00pm 18.4 14.2 5.9 44 6.2 SSW 17 33 9 18 1018.8 1018.4 0.0
30/12:30pm 16.0 10.2 4.4 46 5.5 SSW 24 37 13 20 1018.7 1018.3 0.0
30/12:00pm 16.6 11.6 6.4 51 5.0 SSW 22 32 12 17 1018.6 1018.2 0.0
30/11:30am 15.6 11.4 7.4 58 4.1 SW 19 28 10 15 1018.6 1018.2 0.0
30/11:00am 14.5 10.4 8.0 65 3.3 SW 19 32 10 17 1018.8 1018.4 0.0
30/10:30am 13.6 10.6 9.1 74 2.3 SW 15 26 8 14 1018.9 1018.5 0.0
30/10:00am 12.2 9.5 9.0 81 1.6 SW 13 24 7 13 1018.6 1018.2 0.0
30/09:30am 10.4 7.2 8.3 87 1.0 SW 15 20 8 11 1018.1 1017.7 0.0
30/09:00am 9.2 7.0 8.0 92 0.6 SW 9 19 5 10 1017.9 1017.5 2.0
30/08:30am 7.6 4.5 7.2 97 0.2 SW 13 22 7 12 1017.6 1017.2 2.0
30/08:00am 7.0 4.2 6.9 99 0.0 SW 11 20 6 11 1017.2 1016.8 2.0
30/07:30am 6.8 4.3 6.7 99 0.0 SW 9 15 5 8 1017.0 1016.6 2.0
30/07:00am 7.0 4.6 6.9 99 0.0 WSW 9 15 5 8 1016.6 1016.2 2.0
30/06:30am 7.5 5.6 7.4 99 0.0 WSW 7 13 4 7 1016.2 1015.8 2.0
30/06:00am 7.8 5.6 7.7 99 0.0 WSW 9 13 5 7 1015.5 1015.1 2.0
30/05:30am 8.2 6.1 8.1 99 0.0 SW 9 15 5 8 1015.2 1014.8 1.8
30/05:00am 8.0 6.4 7.9 99 0.0 SW 6 9 3 5 1015.1 1014.7 1.8
30/04:30am 8.5 6.4 8.4 99 0.0 WSW 9 15 5 8 1014.6 1014.2 1.8
30/04:00am 8.5 6.8 8.4 99 0.0 SW 7 11 4 6 1014.5 1014.1 1.8
30/03:30am 8.8 6.8 8.5 98 0.1 WSW 9 15 5 8 1014.5 1014.1 1.8
30/03:00am 9.2 7.2 8.7 97 0.2 WSW 9 13 5 7 1014.3 1013.9 1.8
30/02:30am 9.4 7.5 8.9 97 0.2 WSW 9 13 5 7 1014.2 1013.8 1.8
30/02:00am 9.8 8.3 9.3 97 0.2 WSW 7 11 4 6 1014.3 1013.9 1.8
30/01:30am 10.2 8.5 9.7 97 0.3 WSW 9 15 5 8 1014.6 1014.2 1.8
30/01:00am 10.3 8.8 9.2 93 0.5 WSW 7 13 4 7 1014.2 1013.8 1.8
30/12:30am 10.6 8.4 9.4 92 0.6 WSW 11 17 6 9 1013.9 1013.5 1.8
30/12:00am 10.9 9.8 10.0 94 0.5 SW 6 9 3 5 1013.5 1013.1 1.8
 
Date/Time
EDT
Temp
°C
App
Temp
°C
Dew
Point
°C
Rel
Hum
%
Delta-T
°C
Wind Press
QNH
hPa
Press
MSL
hPa
Rain since
9am
mm
Dir  Spd
km/h
Gust
km/h
Spd
kts
Gust
kts
29/11:30pm 11.2 9.3 10.6 96 0.3 SSW 11 20 6 11 1012.9 1012.5 1.6
29/11:00pm 11.0 8.6 10.2 95 0.4 SSW 13 20 7 11 1012.9 1012.5 1.4
29/10:30pm 11.5 8.8 10.4 93 0.6 SSW 15 26 8 14 1012.5 1012.1 0.6
29/10:00pm 13.5 9.0 8.4 71 2.6 SSW 22 35 12 19 1011.9 1011.5 0.0
29/09:30pm 13.8 8.4 8.0 68 2.9 SSW 26 39 14 21 1011.4 1010.9 0.0
29/09:00pm 14.0 10.0 9.0 72 2.6 SW 20 39 11 21 1010.2 1009.8 0.0
29/08:30pm 15.0 10.8 9.6 70 2.8 SSW 22 37 12 20 1009.1 1008.7 0.0
29/08:00pm 17.9 14.4 10.8 63 3.9 WSW 20 39 11 21 1008.2 1007.8 0.0
29/07:30pm 22.8 19.6 8.5 40 7.6 W 15 26 8 14 1007.3 1006.9 0.0
29/07:00pm 23.3 19.6 7.8 37 8.2 W 17 30 9 16 1007.1 1006.7 0.0
29/06:30pm 23.9 19.6 7.9 36 8.5 W 20 33 11 18 1007.0 1006.6 0.0
29/06:00pm 25.1 21.2 8.6 35 9.0 W 19 32 10 17 1006.6 1006.2 0.0
29/05:30pm 26.3 22.3 9.2 34 9.4 W 20 30 11 16 1006.4 1006.0 0.0
29/05:00pm 27.2 22.7 8.6 31 10.2 WNW 22 35 12 19 1006.3 1005.9 0.0
29/04:30pm 27.6 23.5 8.5 30 10.5 WNW 20 33 11 18 1006.3 1005.9 0.0
29/04:00pm 26.9 22.9 8.4 31 10.1 NW 19 32 10 17 1006.4 1006.0 0.0
29/03:30pm 25.9 21.4 8.4 33 9.5 NW 22 33 12 18 1006.9 1006.5 0.0
29/03:00pm 27.2 23.3 9.5 33 9.9 NW 20 30 11 16 1007.2 1006.8 0.0
29/02:30pm 26.1 22.2 9.5 35 9.2 NW 20 32 11 17 1007.5 1007.1 0.0
29/02:00pm 25.7 21.4 9.5 36 9.0 NW 22 39 12 21 1008.1 1007.7 0.0
29/01:30pm 25.1 21.4 9.4 37 8.6 NW 19 32 10 17 1008.8 1008.4 0.0
29/01:00pm 25.0 21.7 9.7 38 8.5 NW 17 24 9 13 1009.3 1008.9 0.0
29/12:30pm 23.7 20.5 10.0 42 7.5 NNW 17 26 9 14 1009.7 1009.3 0.0
29/12:00pm 23.1 20.1 10.5 45 7.0 NNW 17 26 9 14 1010.3 1009.9 0.0
29/11:30am 22.5 20.2 10.6 47 6.6 NNW 13 22 7 12 1010.8 1010.3 0.0
29/11:00am 21.4 19.6 10.9 51 5.8 NW 11 20 6 11 1011.2 1010.7 0.0
29/10:30am 20.8 19.1 11.2 54 5.3 NW 11 15 6 8 1011.3 1010.8 0.0
29/10:00am 18.9 18.1 11.0 60 4.3 W 6 7 3 4 1011.2 1010.7 0.0
29/09:30am 17.0 16.7 10.1 64 3.7 NNE 2 7 1 4 1011.1 1010.6 0.0
29/09:00am 13.7 13.4 8.5 71 2.6 CALM 0 0 0 0 1011.2 1010.7 0.0
29/08:30am 10.8 10.2 7.5 80 1.6 CALM 0 0 0 0 1011.0 1010.5 0.0
29/08:00am 8.6 7.7 6.1 84 1.2 CALM 0 0 0 0 1010.8 1010.3 0.0
29/07:30am 8.7 7.9 6.5 86 1.0 CALM 0 6 0 3 1010.9 1010.4 0.0
29/07:00am 9.0 7.9 7.0 87 0.9 NE 2 7 1 4 1010.7 1010.2 0.0
29/06:30am 8.6 7.7 6.2 85 1.1 CALM 0 0 0 0 1010.7 1010.2 0.0
29/06:00am 8.9 7.4 6.9 87 0.9 WSW 4 6 2 3 1010.5 1010.0 0.0
29/05:30am 8.8 8.0 6.3 84 1.2 CALM 0 0 0 0 1010.1 1009.7 0.0
29/05:00am 9.6 8.5 6.7 82 1.4 WSW 2 7 1 4 1010.0 1009.6 0.0
29/04:30am 10.1 9.3 6.4 78 1.7 CALM 0 0 0 0 1010.0 1009.6 0.0
29/04:00am 10.8 10.1 7.1 78 1.8 CALM 0 4 0 2 1010.5 1010.0 0.0
29/03:30am 10.9 10.1 6.6 75 2.0 CALM 0 0 0 0 1010.9 1010.4 0.0
29/03:00am 11.1 10.3 6.6 74 2.1 CALM 0 0 0 0 1011.1 1010.6 0.0
29/02:30am 11.3 10.7 7.2 76 2.0 CALM 0 0 0 0 1011.6 1011.1 0.0
29/02:00am 11.6 10.8 6.3 70 2.5 CALM 0 0 0 0 1011.9 1011.5 0.0
29/01:30am 12.6 11.1 6.6 67 2.9 W 4 7 2 4 1011.9 1011.5 0.0
29/01:00am 12.1 10.2 6.8 70 2.6 WSW 6 7 3 4 1012.2 1011.8 0.0
29/12:30am 12.7 11.9 6.7 67 2.9 CALM 0 0 0 0 1012.2 1011.8 0.0
29/12:00am 13.4 12.8 7.4 67 3.0 CALM 0 0 0 0 1012.5 1012.1 0.0
 
Date/Time
EDT
Temp
°C
App
Temp
°C
Dew
Point
°C
Rel
Hum
%
Delta-T
°C
Wind Press
QNH
hPa
Press
MSL
hPa
Rain since
9am
mm
Dir  Spd
km/h
Gust
km/h
Spd
kts
Gust
kts
28/11:30pm 14.1 13.2 7.6 65 3.2 NNW 2 7 1 4 1012.7 1012.3 0.0
28/11:00pm 14.4 13.6 6.7 60 3.8 CALM 0 0 0 0 1012.6 1012.2 0.0
28/10:30pm 15.6 13.9 7.6 59 4.0 NW 6 7 3 4 1012.6 1012.2 0.0
28/10:00pm 16.6 15.0 8.1 57 4.3 NW 6 7 3 4 1012.7 1012.3 0.0
28/09:30pm 17.0 16.4 7.6 54 4.8 CALM 0 6 0 3 1012.7 1012.3 0.0
28/09:00pm 17.9 16.1 7.3 50 5.4 NW 6 7 3 4 1012.6 1012.2 0.0
28/08:30pm 19.1 17.2 7.5 47 5.9 NNW 7 9 4 5 1012.4 1012.0 0.0
28/08:00pm 20.6 18.8 7.9 44 6.6 NW 7 11 4 6 1012.2 1011.8 0.0
28/07:30pm 21.5 19.3 7.7 41 7.2 WNW 9 15 5 8 1012.1 1011.7 0.0
28/07:00pm 23.4 21.2 7.9 37 8.2 WNW 9 15 5 8 1012.1 1011.7 0.0
28/06:30pm 24.3 21.8 8.3 36 8.6 W 11 17 6 9 1011.9 1011.5 0.0
28/06:00pm 24.8 21.7 8.7 36 8.7 W 15 22 8 12 1011.9 1011.5 0.0
28/05:30pm 25.1 22.2 8.1 34 9.1 W 13 19 7 10 1011.9 1011.5 0.0
28/05:00pm 25.5 22.7 8.5 34 9.2 WNW 13 19 7 10 1012.0 1011.6 0.0
28/04:30pm 25.5 22.6 8.1 33 9.4 W 13 26 7 14 1012.2 1011.8 0.0
28/04:00pm 25.2 21.6 8.2 34 9.1 W 17 26 9 14 1012.6 1012.2 0.0
28/03:30pm 24.7 21.8 8.2 35 8.9 WNW 13 24 7 13 1012.8 1012.4 0.0
28/03:00pm 24.3 20.3 8.3 36 8.6 W 19 30 10 16 1013.1 1012.7 0.0
28/02:30pm 24.1 20.6 8.9 38 8.2 WNW 17 30 9 16 1013.4 1013.0 0.0
28/02:00pm 22.7 19.4 8.0 39 7.8 W 15 26 8 14 1013.7 1013.3 0.0
28/01:30pm 22.6 19.4 8.3 40 7.6 W 15 24 8 13 1014.2 1013.8 0.0
28/01:00pm 22.3 19.5 8.4 41 7.4 W 13 22 7 12 1014.7 1014.3 0.0
28/12:30pm 21.5 18.7 8.4 43 6.9 W 13 24 7 13 1015.0 1014.6 0.0
28/12:00pm 20.9 17.9 9.2 47 6.3 WSW 15 24 8 13 1015.2 1014.8 0.0
28/11:30am 20.0 16.9 9.0 49 5.8 W 15 26 8 14 1015.4 1015.0 0.0
28/11:00am 19.0 16.8 9.5 54 5.0 SW 11 17 6 9 1015.7 1015.3 0.0
28/10:30am 18.0 15.9 9.9 59 4.3 SW 11 20 6 11 1015.9 1015.5 0.0
28/10:00am 16.2 15.3 11.4 73 2.6 SW 7 13 4 7 1015.7 1015.3 0.0
28/09:30am 13.8 13.0 11.1 84 1.4 SSW 6 9 3 5 1015.7 1015.3 0.0
28/09:00am 11.4 10.2 9.7 89 0.9 SSE 6 7 3 4 1015.5 1015.1 0.4
28/08:30am 10.1 10.0 9.6 97 0.3 CALM 0 0 0 0 1015.4 1015.0 0.4
28/08:00am 8.5 8.0 7.9 96 0.3 CALM 0 0 0 0 1015.4 1015.0 0.4
28/07:30am 8.8 8.3 7.9 94 0.4 CALM 0 0 0 0 1015.1 1014.7 0.4
28/07:00am 9.2 8.0 8.1 93 0.5 SSW 4 9 2 5 1015.3 1014.9 0.4
28/06:30am 10.0 8.6 8.8 92 0.6 WSW 6 11 3 6 1014.8 1014.4 0.4
28/06:00am 10.3 8.7 8.7 90 0.8 SW 7 15 4 8 1014.8 1014.4 0.4
28/05:30am 10.4 8.0 8.8 90 0.8 WSW 11 17 6 9 1014.6 1014.2 0.4
28/05:00am 10.2 9.1 8.6 90 0.8 SSW 4 13 2 7 1014.5 1014.1 0.4
28/04:30am 10.7 8.7 8.5 86 1.1 W 9 13 5 7 1014.5 1014.1 0.4
28/04:00am 11.5 9.5 8.7 83 1.4 WSW 9 17 5 9 1014.7 1014.3 0.4
28/03:30am 12.5 10.6 9.1 80 1.7 WSW 9 17 5 9 1014.7 1014.3 0.4
28/03:00am 12.6 11.1 9.2 80 1.7 WSW 7 13 4 7 1014.7 1014.3 0.4
28/02:30am 12.4 10.5 8.9 79 1.8 WSW 9 15 5 8 1014.9 1014.5 0.4
28/02:00am 12.5 10.4 8.4 76 2.0 WSW 9 17 5 9 1014.9 1014.5 0.4
28/01:30am 12.5 10.3 8.0 74 2.2 W 9 13 5 7 1014.9 1014.5 0.4
28/01:00am 12.4 11.2 7.9 74 2.2 WSW 4 7 2 4 1014.9 1014.5 0.4
28/12:30am 13.1 11.4 7.5 69 2.8 SW 6 9 3 5 1014.8 1014.4 0.4
28/12:00am 13.8 11.5 7.6 66 3.1 WSW 9 13 5 7 1015.0 1014.6 0.4
 
Date/Time
EDT
Temp
°C
App
Temp
°C
Dew
Point
°C
Rel
Hum
%
Delta-T
°C
Wind Press
QNH
hPa
Press
MSL
hPa
Rain since
9am
mm
Dir  Spd
km/h
Gust
km/h
Spd
kts
Gust
kts
27/11:30pm 14.7 12.4 7.5 62 3.6 WSW 9 15 5 8 1014.8 1014.4 0.4
27/11:00pm 15.4 12.8 7.7 60 3.9 WSW 11 17 6 9 1014.9 1014.5 0.4
27/10:30pm 15.7 12.7 7.5 58 4.1 WSW 13 20 7 11 1014.6 1014.2 0.4
27/10:00pm 15.8 13.4 7.1 56 4.3 WSW 9 17 5 9 1014.3 1013.9 0.4
27/09:30pm 16.7 14.3 7.1 53 4.8 WSW 9 15 5 8 1013.9 1013.5 0.4
27/09:00pm 16.7 14.8 7.6 55 4.6 WSW 7 11 4 6 1013.5 1013.1 0.4
27/08:30pm 16.2 14.8 8.7 61 3.9 W 6 9 3 5 1013.0 1012.6 0.4
27/08:00pm 17.7 17.0 8.6 55 4.7 WSW 2 6 1 3 1012.6 1012.2 0.4
27/07:30pm 19.1 17.5 7.8 48 5.8 SW 6 9 3 5 1012.4 1012.0 0.4
27/07:00pm 20.8 18.3 8.1 44 6.7 WSW 11 19 6 10 1012.1 1011.7 0.4
27/06:30pm 21.5 17.8 8.1 42 7.0 WSW 17 26 9 14 1011.9 1011.5 0.4
27/06:00pm 21.7 18.4 9.6 46 6.6 SW 17 28 9 15 1011.7 1011.2 0.4
27/05:30pm 21.0 17.3 9.6 48 6.1 SW 19 33 10 18 1011.9 1011.5 0.4
27/05:00pm 20.9 16.6 9.2 47 6.3 WSW 22 35 12 19 1012.0 1011.6 0.4
27/04:30pm 20.9 16.9 9.2 47 6.3 WSW 20 37 11 20 1011.9 1011.5 0.4
27/04:00pm 19.3 17.4 13.0 67 3.6 WSW 15 26 8 14 1012.0 1011.6 0.4

Other Formats:

Comma delimited format used in spreadsheet applications
http://www.bom.gov.au/fwo/IDV60801/IDV60801.94839.axf

JavaScript Object Notation format (JSON) in row-major order
http://www.bom.gov.au/fwo/IDV60801/IDV60801.94839.json